createdAt,value
2019-06-08T00:01:56.112Z,93.81
2019-06-08T00:05:00.416Z,94.07
2019-06-08T00:08:06.232Z,94.08
2019-06-08T00:11:12.703Z,94.73
2019-06-08T00:14:17.459Z,95.52
2019-06-08T00:17:35.828Z,95.88
2019-06-08T00:20:28.036Z,96.44
2019-06-08T00:23:32.422Z,96.67
2019-06-08T00:26:36.771Z,97.67
2019-06-08T00:29:41.084Z,97.25
2019-06-08T00:32:45.502Z,98.10
2019-06-08T00:35:49.829Z,98.28
2019-06-08T00:38:55.929Z,98.21
2019-06-08T00:42:00.302Z,98.74
2019-06-08T00:45:06.055Z,98.72
2019-06-08T00:48:11.373Z,98.66
2019-06-08T00:51:16.752Z,98.73
2019-06-08T00:54:21.537Z,98.55
2019-06-08T00:57:26.066Z,98.44
2019-06-08T01:00:32.129Z,98.44
2019-06-08T01:03:36.450Z,98.64
2019-06-08T01:06:40.771Z,98.58
2019-06-08T01:09:45.063Z,98.68
2019-06-08T01:12:49.352Z,98.53
2019-06-08T01:15:54.778Z,98.72
2019-06-08T01:18:59.082Z,98.63
2019-06-08T01:22:03.391Z,98.81
2019-06-08T01:25:08.326Z,98.41
2019-06-08T01:28:12.615Z,98.72
2019-06-08T01:31:17.177Z,99.06
2019-06-08T01:34:22.865Z,99.52
2019-06-08T01:37:27.260Z,99.56
2019-06-08T01:40:31.611Z,99.36
2019-06-08T01:43:35.846Z,98.78
2019-06-08T01:46:40.142Z,99.16
2019-06-08T01:49:44.446Z,99.33
2019-06-08T01:52:48.754Z,99.37
2019-06-08T01:55:53.069Z,99.50
2019-06-08T01:58:57.436Z,99.55
2019-06-08T02:02:01.727Z,99.80
2019-06-08T02:05:06.787Z,99.85
2019-06-08T02:08:12.302Z,99.76
2019-06-08T02:11:17.802Z,100.00
2019-06-08T02:14:22.207Z,100.00
2019-06-08T02:17:27.319Z,100.00
2019-06-08T02:20:33.512Z,100.00
2019-06-08T02:23:37.790Z,100.00
2019-06-08T02:26:42.138Z,100.00
2019-06-08T02:29:46.420Z,100.00
2019-06-08T02:32:50.817Z,99.74
2019-06-08T02:35:55.110Z,99.61
2019-06-08T02:38:59.414Z,99.70
2019-06-08T02:42:05.725Z,99.47
2019-06-08T02:45:10.546Z,98.83
2019-06-08T02:48:14.832Z,97.80
2019-06-08T02:51:20.664Z,98.16
2019-06-08T02:54:25.470Z,98.48
2019-06-08T02:57:33.099Z,98.58
2019-06-08T03:00:39.533Z,98.48
2019-06-08T03:03:44.751Z,98.62
2019-06-08T03:06:51.064Z,98.73
2019-06-08T03:09:57.186Z,98.80
2019-06-08T03:13:03.410Z,98.91
2019-06-08T03:16:07.741Z,98.49
2019-06-08T03:19:21.732Z,98.49
2019-06-08T03:22:18.073Z,97.96
2019-06-08T03:25:22.359Z,97.74
2019-06-08T03:28:26.722Z,97.46
2019-06-08T03:31:34.501Z,97.33
2019-06-08T03:34:43.558Z,97.07
2019-06-08T03:37:44.466Z,97.06
2019-06-08T03:40:48.970Z,96.32
2019-06-08T03:43:53.278Z,95.88
2019-06-08T03:46:59.021Z,95.74
2019-06-08T03:50:03.388Z,95.50
2019-06-08T03:53:07.683Z,94.73
2019-06-08T03:56:13.209Z,94.48
2019-06-08T03:59:17.612Z,94.05
2019-06-08T04:02:21.891Z,93.54
2019-06-08T04:05:26.194Z,92.99
2019-06-08T04:08:31.692Z,92.32
2019-06-08T04:11:37.879Z,91.85
2019-06-08T04:14:44.302Z,90.98
2019-06-08T04:17:50.336Z,90.51
2019-06-08T04:20:56.653Z,89.27
2019-06-08T04:24:00.941Z,88.98
2019-06-08T04:27:05.336Z,88.31
2019-06-08T04:30:10.234Z,88.29
2019-06-08T04:33:14.513Z,88.27
2019-06-08T04:36:18.810Z,88.08
2019-06-08T04:39:23.098Z,87.49
2019-06-08T04:42:27.376Z,87.47
2019-06-08T04:45:31.973Z,87.12
2019-06-08T04:48:36.259Z,86.23
2019-06-08T04:51:40.849Z,85.28
2019-06-08T04:54:47.428Z,85.48
2019-06-08T04:57:51.589Z,85.35
2019-06-08T05:00:56.935Z,85.29
2019-06-08T05:04:01.225Z,85.26
2019-06-08T05:07:05.536Z,84.79
2019-06-08T05:10:11.452Z,83.01
2019-06-08T05:13:15.729Z,83.53
2019-06-08T05:16:20.087Z,83.78
2019-06-08T05:19:25.833Z,83.58
2019-06-08T05:22:30.139Z,83.23
2019-06-08T05:25:34.964Z,82.35
2019-06-08T05:28:39.257Z,82.18
2019-06-08T05:31:43.669Z,81.58
2019-06-08T05:34:47.947Z,80.34
2019-06-08T05:37:52.254Z,80.72
2019-06-08T05:40:56.567Z,80.26
2019-06-08T05:44:00.850Z,79.50
2019-06-08T05:47:05.263Z,79.28
2019-06-08T05:50:11.090Z,79.32
2019-06-08T05:53:15.401Z,79.67
2019-06-08T05:56:19.719Z,79.67
2019-06-08T05:59:24.011Z,79.45
2019-06-08T06:02:28.306Z,79.08
2019-06-08T06:05:32.577Z,77.86
2019-06-08T06:08:37.978Z,78.03
2019-06-08T06:11:42.849Z,78.05
2019-06-08T06:14:49.098Z,78.26
2019-06-08T06:17:53.494Z,78.41
2019-06-08T06:21:10.362Z,77.79
2019-06-08T06:24:03.835Z,77.33
2019-06-08T06:27:09.244Z,78.41
2019-06-08T06:30:14.945Z,76.79
2019-06-08T06:33:19.250Z,76.55
2019-06-08T06:36:23.575Z,75.91
2019-06-08T06:39:27.868Z,74.29
2019-06-08T06:42:32.159Z,73.48
2019-06-08T06:45:36.539Z,72.91
2019-06-08T06:48:41.991Z,71.76
2019-06-08T06:51:46.487Z,72.04
2019-06-08T06:54:51.287Z,71.01
2019-06-08T06:57:57.411Z,70.29
2019-06-08T07:01:01.730Z,67.71
2019-06-08T07:04:06.039Z,67.74
2019-06-08T07:07:10.387Z,68.53
2019-06-08T07:10:16.015Z,68.04
2019-06-08T07:13:21.745Z,67.46
2019-06-08T07:16:26.056Z,66.49
2019-06-08T07:19:30.395Z,67.50
2019-06-08T07:22:36.158Z,67.43
2019-06-08T07:25:41.567Z,67.44
2019-06-08T07:28:46.255Z,67.37
2019-06-08T07:31:53.254Z,67.55
2019-06-08T07:34:57.762Z,67.22
2019-06-08T07:38:02.216Z,68.06
2019-06-08T07:41:07.686Z,68.23
2019-06-08T07:44:12.157Z,68.27
2019-06-08T07:47:16.466Z,67.85
2019-06-08T07:50:21.062Z,68.19
2019-06-08T07:53:25.472Z,68.44
2019-06-08T07:56:29.904Z,68.36
2019-06-08T07:59:34.193Z,68.40
2019-06-08T08:02:38.503Z,67.22
2019-06-08T08:05:42.785Z,67.67
2019-06-08T08:08:48.348Z,67.74
2019-06-08T08:11:55.241Z,66.80
2019-06-08T08:14:59.823Z,67.27
2019-06-08T08:18:04.283Z,66.64
2019-06-08T08:21:21.206Z,65.40
2019-06-08T08:35:19.973Z,65.45
2019-06-08T08:38:24.298Z,64.86
2019-06-08T08:41:28.604Z,65.70
2019-06-08T08:44:32.910Z,64.36
2019-06-08T08:47:38.660Z,63.79
2019-06-08T08:50:43.378Z,61.97
2019-06-08T08:53:53.861Z,63.22
2019-06-08T08:56:57.165Z,62.56
2019-06-08T09:00:04.427Z,61.96
2019-06-08T09:03:24.306Z,62.69
2019-06-08T09:06:12.893Z,63.37
2019-06-08T09:09:18.835Z,64.51
2019-06-08T09:12:23.317Z,64.81
2019-06-08T09:15:28.777Z,64.91
2019-06-08T09:18:33.695Z,64.33
2019-06-08T09:21:39.215Z,63.32
2019-06-08T09:24:43.548Z,63.97
2019-06-08T09:27:48.902Z,64.31
2019-06-08T09:30:54.129Z,62.69
2019-06-08T09:34:08.303Z,61.78
2019-06-08T09:37:05.685Z,59.68
2019-06-08T09:40:12.482Z,60.09
2019-06-08T09:43:18.967Z,58.85
2019-06-08T09:46:22.794Z,58.19
2019-06-08T09:49:28.024Z,59.41
2019-06-08T09:52:32.437Z,59.70
2019-06-08T09:55:41.299Z,59.24
2019-06-08T09:58:44.220Z,59.20
2019-06-08T10:01:48.518Z,59.11
2019-06-08T10:04:56.072Z,60.10
2019-06-08T10:08:04.162Z,59.19
2019-06-08T10:11:09.754Z,58.91
2019-06-08T10:14:14.274Z,59.23
2019-06-08T10:17:21.001Z,59.02
2019-06-08T10:20:24.669Z,59.06
2019-06-08T10:23:34.171Z,58.40
2019-06-08T10:26:37.514Z,59.79
2019-06-08T10:29:42.217Z,60.12
2019-06-08T10:32:50.410Z,60.55
2019-06-08T10:35:52.580Z,61.11
2019-06-08T10:39:01.810Z,60.50
2019-06-08T10:42:04.880Z,60.94
2019-06-08T10:45:13.128Z,59.37
2019-06-08T10:48:17.927Z,58.43
2019-06-08T10:51:22.389Z,57.59
2019-06-08T10:54:27.743Z,57.73
2019-06-08T10:57:32.064Z,59.41
2019-06-08T11:00:38.706Z,59.55
2019-06-08T11:03:42.390Z,58.20
2019-06-08T11:06:47.813Z,57.61
2019-06-08T11:09:52.276Z,58.36
2019-06-08T11:12:58.213Z,57.77
2019-06-08T11:16:04.013Z,58.67
2019-06-08T11:19:12.882Z,59.20
2019-06-08T11:22:15.313Z,59.27
2019-06-08T11:25:20.811Z,59.33
2019-06-08T11:28:25.112Z,59.87
2019-06-08T11:31:32.185Z,60.49
2019-06-08T11:34:37.677Z,61.21
2019-06-08T11:37:42.333Z,61.43
2019-06-08T11:40:47.855Z,60.99
2019-06-08T11:43:53.609Z,61.74
2019-06-08T11:46:57.915Z,63.12
2019-06-08T11:50:02.866Z,63.14
2019-06-08T11:53:12.327Z,63.02
2019-06-08T11:56:13.910Z,63.52
2019-06-08T11:59:19.901Z,62.88
2019-06-08T12:02:24.191Z,62.85
2019-06-08T12:05:28.473Z,66.77
2019-06-08T12:08:32.765Z,69.89
2019-06-08T12:11:38.262Z,72.76
2019-06-08T12:14:44.297Z,75.70
2019-06-08T12:17:50.374Z,75.63
2019-06-08T12:20:54.748Z,75.86
2019-06-08T12:23:59.035Z,75.02
2019-06-08T12:27:13.026Z,74.68
2019-06-08T12:30:17.365Z,75.20
2019-06-08T12:33:19.181Z,75.78
2019-06-08T12:36:23.649Z,77.84
2019-06-08T12:39:29.353Z,78.45
2019-06-08T12:42:35.450Z,78.49
2019-06-08T12:45:39.950Z,78.88
2019-06-08T12:48:45.716Z,77.49
2019-06-08T12:51:51.781Z,77.06
2019-06-08T12:55:05.515Z,76.63
2019-06-08T12:58:02.175Z,76.80
2019-06-08T13:01:08.216Z,77.46
2019-06-08T13:04:13.657Z,76.44
2019-06-08T13:07:19.132Z,78.33
2019-06-08T13:10:24.302Z,79.40
2019-06-08T13:13:28.672Z,80.74
2019-06-08T13:16:32.993Z,80.63
2019-06-08T13:19:39.105Z,80.63
2019-06-08T13:22:43.499Z,80.05
2019-06-08T13:25:48.150Z,79.03
2019-06-08T13:28:52.581Z,78.17
2019-06-08T13:31:59.037Z,76.07
2019-06-08T13:35:02.941Z,74.50
2019-06-08T13:38:08.769Z,73.68
2019-06-08T13:41:13.268Z,73.41
2019-06-08T13:44:19.754Z,72.67
2019-06-08T13:47:24.167Z,73.06
2019-06-08T13:50:28.488Z,76.34
2019-06-08T13:53:32.799Z,77.94
2019-06-08T13:56:38.596Z,77.66
2019-06-08T13:59:44.873Z,77.52
2019-06-08T14:02:49.183Z,76.32
2019-06-08T14:05:53.518Z,75.47
2019-06-08T14:08:58.224Z,75.47
2019-06-08T14:12:02.698Z,75.18
2019-06-08T14:15:08.624Z,75.91
2019-06-08T14:18:13.067Z,76.64
2019-06-08T14:21:25.709Z,78.66
2019-06-08T14:24:28.873Z,79.05
2019-06-08T14:27:32.940Z,79.41
2019-06-08T14:30:37.796Z,80.22
2019-06-08T14:33:42.307Z,80.13
2019-06-08T14:36:48.918Z,81.67
2019-06-08T14:39:53.824Z,81.24
2019-06-08T14:42:58.215Z,82.17
2019-06-08T14:46:02.518Z,81.38
2019-06-08T14:49:09.721Z,79.87
2019-06-08T14:52:13.319Z,79.95
2019-06-08T14:55:18.743Z,79.36
2019-06-08T14:58:27.304Z,79.22
2019-06-08T15:01:31.402Z,78.73
2019-06-08T15:04:36.915Z,78.21
2019-06-08T15:07:42.815Z,77.67
2019-06-08T15:10:49.615Z,77.47
2019-06-08T15:13:53.173Z,75.87
2019-06-08T15:16:59.069Z,75.68
2019-06-08T15:20:03.678Z,74.55
2019-06-08T15:23:08.422Z,72.99
2019-06-08T15:26:26.170Z,70.79
2019-06-08T15:29:19.085Z,69.58
2019-06-08T15:32:23.400Z,66.86
2019-06-08T15:35:27.718Z,68.04
2019-06-08T15:38:33.421Z,68.15
2019-06-08T15:41:38.259Z,69.16
2019-06-08T15:44:42.863Z,71.18
2019-06-08T15:47:48.621Z,72.71
2019-06-08T15:50:54.129Z,75.36
2019-06-08T15:53:58.486Z,74.31
2019-06-08T15:57:02.795Z,73.12
2019-06-08T16:00:10.206Z,73.25
2019-06-08T16:03:14.356Z,73.73
2019-06-08T16:06:18.647Z,74.20
2019-06-08T16:09:23.982Z,74.37
2019-06-08T16:12:28.458Z,73.83
2019-06-08T16:15:33.413Z,73.59
2019-06-08T16:18:37.766Z,74.91
2019-06-08T16:21:42.165Z,75.05
2019-06-08T16:24:46.456Z,76.58
2019-06-08T16:27:50.824Z,77.26
2019-06-08T16:30:55.150Z,78.63
2019-06-08T16:33:59.445Z,79.02
2019-06-08T16:37:05.229Z,81.15
2019-06-08T16:40:09.907Z,82.11
2019-06-08T16:43:14.204Z,82.40
2019-06-08T16:46:18.501Z,81.46
2019-06-08T16:49:22.807Z,82.61
2019-06-08T16:52:28.334Z,82.33
2019-06-08T16:55:33.980Z,80.39
2019-06-08T16:58:38.427Z,80.96
2019-06-08T17:01:42.762Z,80.77
2019-06-08T17:04:48.177Z,81.69
2019-06-08T17:07:52.495Z,81.62
2019-06-08T17:10:56.788Z,81.69
2019-06-08T17:14:01.136Z,81.14
2019-06-08T17:17:05.567Z,81.39
2019-06-08T17:20:11.564Z,81.11
2019-06-08T17:23:16.945Z,81.58
2019-06-08T17:26:21.238Z,81.97
2019-06-08T17:29:25.595Z,81.77
2019-06-08T17:32:31.279Z,81.40
2019-06-08T17:35:35.764Z,81.92
2019-06-08T17:38:41.396Z,82.45
2019-06-08T17:41:45.851Z,83.06
2019-06-08T17:44:50.166Z,81.90
2019-06-08T17:47:54.462Z,82.66
2019-06-08T17:50:59.871Z,85.86
2019-06-08T17:54:05.764Z,90.83
2019-06-08T17:57:10.172Z,90.83
2019-06-08T18:00:15.170Z,91.30
2019-06-08T18:03:19.656Z,92.22
2019-06-08T18:06:23.954Z,93.03
2019-06-08T18:09:28.285Z,93.45
2019-06-08T18:12:32.589Z,93.65
2019-06-08T18:15:39.947Z,92.89
2019-06-08T18:18:44.288Z,92.89
2019-06-08T18:21:49.040Z,93.37
2019-06-08T18:24:53.322Z,93.83
2019-06-08T18:28:09.110Z,93.72
2019-06-08T18:31:07.521Z,93.57
2019-06-08T18:34:11.540Z,94.02
2019-06-08T18:37:18.043Z,94.76
2019-06-08T18:40:22.725Z,93.91
2019-06-08T18:43:27.988Z,92.86
2019-06-08T18:46:32.654Z,92.07
2019-06-08T18:49:38.458Z,92.29
2019-06-08T18:52:45.066Z,91.57
2019-06-08T18:55:50.527Z,91.57
2019-06-08T18:58:55.044Z,92.22
2019-06-08T19:01:59.706Z,92.36
2019-06-08T19:05:03.989Z,93.19
2019-06-08T19:08:10.389Z,93.84
2019-06-08T19:11:16.760Z,94.06
2019-06-08T19:14:20.999Z,94.65
2019-06-08T19:17:25.427Z,95.33
2019-06-08T19:20:29.730Z,95.33
2019-06-08T19:23:39.029Z,96.23
2019-06-08T19:26:43.185Z,96.26
2019-06-08T19:29:51.408Z,96.77
2019-06-08T19:32:53.978Z,97.04
2019-06-08T19:35:58.488Z,97.41
2019-06-08T19:39:02.770Z,97.68
2019-06-08T19:42:07.980Z,97.75
2019-06-08T19:45:13.826Z,98.09
2019-06-08T19:48:18.115Z,98.12
2019-06-08T19:51:22.532Z,98.31
2019-06-08T19:54:27.167Z,98.31
2019-06-08T19:57:31.454Z,98.14
2019-06-08T20:00:38.651Z,98.41
2019-06-08T20:03:42.956Z,98.38
2019-06-08T20:06:48.089Z,98.10
2019-06-08T20:09:53.912Z,98.21
2019-06-08T20:12:58.493Z,98.71
2019-06-08T20:16:03.400Z,98.89
2019-06-08T20:19:08.881Z,98.88
2019-06-08T20:22:13.208Z,97.95
2019-06-08T20:25:17.971Z,97.10
2019-06-08T20:28:22.460Z,96.22
2019-06-08T20:31:27.314Z,95.60
2019-06-08T20:34:31.885Z,96.22
2019-06-08T20:37:37.719Z,96.09
2019-06-08T20:40:42.217Z,95.59
2019-06-08T20:43:49.109Z,95.59
2019-06-08T20:46:53.904Z,95.32
2019-06-08T20:49:58.470Z,95.11
2019-06-08T20:53:02.895Z,95.50
2019-06-08T20:56:08.002Z,95.50
2019-06-08T20:59:28.918Z,95.50
2019-06-08T21:02:18.584Z,95.53
2019-06-08T21:05:22.929Z,95.35
2019-06-08T21:08:28.214Z,95.45
2019-06-08T21:11:32.738Z,95.33
2019-06-08T21:14:38.516Z,95.73
2019-06-08T21:17:42.831Z,95.82
2019-06-08T21:20:47.233Z,95.70
2019-06-08T21:23:55.538Z,96.28
2019-06-08T21:27:00.751Z,96.58
2019-06-08T21:30:11.776Z,97.08
2019-06-08T21:33:10.380Z,97.54
2019-06-08T21:36:18.195Z,97.60
2019-06-08T21:39:22.412Z,98.09
2019-06-08T21:42:27.756Z,98.20
2019-06-08T21:45:32.442Z,98.20
2019-06-08T21:48:38.577Z,98.27
2019-06-08T21:51:42.913Z,98.37
2019-06-08T21:54:48.851Z,98.74
2019-06-08T21:57:54.303Z,99.18
2019-06-08T22:01:01.225Z,98.91
2019-06-08T22:04:07.820Z,98.46
2019-06-08T22:07:12.152Z,98.01
2019-06-08T22:10:17.946Z,97.78
2019-06-08T22:13:22.530Z,97.78
2019-06-08T22:16:27.385Z,97.48
2019-06-08T22:19:31.840Z,97.67
2019-06-08T22:22:37.890Z,97.73
2019-06-08T22:25:42.326Z,97.64
2019-06-08T22:28:48.161Z,97.63
2019-06-08T22:31:53.867Z,97.83
2019-06-08T22:35:00.234Z,96.81
2019-06-08T22:38:04.343Z,97.56
2019-06-08T22:41:08.646Z,96.29
2019-06-08T22:44:17.577Z,96.30
2019-06-08T22:47:22.097Z,96.40
2019-06-08T22:50:27.566Z,96.75
2019-06-08T22:53:32.246Z,97.03
2019-06-08T22:56:37.160Z,97.51
2019-06-08T22:59:43.539Z,98.12
2019-06-08T23:02:48.584Z,98.12
2019-06-08T23:05:54.861Z,98.10
2019-06-08T23:09:01.429Z,98.20
2019-06-08T23:12:09.193Z,98.43
2019-06-08T23:15:11.681Z,98.19
2019-06-08T23:18:17.954Z,98.19
2019-06-08T23:21:22.133Z,98.43
2019-06-08T23:24:27.519Z,98.29
2019-06-08T23:27:31.900Z,97.95
2019-06-08T23:30:38.324Z,97.58
2019-06-08T23:33:42.757Z,97.62
2019-06-08T23:36:58.240Z,97.37
2019-06-08T23:39:53.138Z,97.53
2019-06-08T23:42:58.516Z,97.60
2019-06-08T23:46:04.017Z,96.74
2019-06-08T23:49:09.093Z,96.74
2019-06-08T23:52:13.443Z,96.23
2019-06-08T23:55:18.328Z,95.99
2019-06-08T23:58:22.847Z,95.21
